TimeAST,TemperatureF,Dew PointF,Humidity,Sea Level PressureIn,VisibilityMPH,Wind Direction,Wind SpeedMPH,Gust SpeedMPH,PrecipitationIn,Events,Conditions,WindDirDegrees,DateUTC
12:28 AM,82.4,75.2,79,30.00,10.0,NE,8.1,-,N/A,,Mostly Cloudy,50,2013-11-15 04:28:00
12:37 AM,82.4,75.2,79,30.00,10.0,ENE,6.9,-,N/A,,Scattered Clouds,60,2013-11-15 04:37:00
12:53 AM,82.0,75.0,79,29.99,10.0,NE,8.1,-,N/A,,Mostly Cloudy,50,2013-11-15 04:53:00
1:53 AM,82.0,75.0,79,29.98,10.0,ENE,8.1,-,N/A,,Scattered Clouds,70,2013-11-15 05:53:00
2:53 AM,80.1,75.9,87,29.97,10.0,East,6.9,-,0.00,,Mostly Cloudy,80,2013-11-15 06:53:00
3:53 AM,80.1,75.9,87,29.96,10.0,ENE,4.6,-,N/A,,Mostly Cloudy,60,2013-11-15 07:53:00
4:53 AM,78.1,75.0,90,29.96,10.0,East,3.5,-,N/A,,Overcast,80,2013-11-15 08:53:00
5:53 AM,78.1,75.0,90,29.98,10.0,East,4.6,-,N/A,,Overcast,90,2013-11-15 09:53:00
6:53 AM,77.0,75.0,94,29.99,10.0,Calm,Calm,-,N/A,,Mostly Cloudy,0,2013-11-15 10:53:00
7:28 AM,78.8,75.2,89,30.01,10.0,East,6.9,-,N/A,,Mostly Cloudy,90,2013-11-15 11:28:00
7:53 AM,77.0,75.0,94,30.02,10.0,East,9.2,-,N/A,,Overcast,100,2013-11-15 11:53:00
8:53 AM,77.0,73.9,90,30.04,10.0,Calm,Calm,-,N/A,,Overcast,0,2013-11-15 12:53:00
9:53 AM,80.1,75.9,87,30.04,10.0,ESE,6.9,-,N/A,,Overcast,120,2013-11-15 13:53:00
10:36 AM,78.8,75.2,89,30.04,10.0,ENE,6.9,-,N/A,,Mostly Cloudy,70,2013-11-15 14:36:00
10:53 AM,84.0,75.0,74,30.02,10.0,ESE,5.8,-,N/A,,Mostly Cloudy,110,2013-11-15 14:53:00
11:53 AM,82.9,75.9,79,29.99,10.0,South,8.1,-,N/A,,Overcast,180,2013-11-15 15:53:00
12:48 PM,82.4,75.2,79,29.97,10.0,SW,5.8,-,N/A,,Overcast,220,2013-11-15 16:48:00
12:53 PM,82.0,73.9,76,29.97,10.0,West,4.6,-,N/A,,Overcast,260,2013-11-15 16:53:00
1:53 PM,84.9,75.9,74,29.94,10.0,East,6.9,-,N/A,,Overcast,100,2013-11-15 17:53:00
2:07 PM,84.2,75.2,74,29.94,10.0,Calm,Calm,-,N/A,,Overcast,0,2013-11-15 18:07:00
2:53 PM,84.0,75.9,76,29.93,10.0,ENE,4.6,-,N/A,,Partly Cloudy,70,2013-11-15 18:53:00
3:53 PM,84.9,75.0,72,29.91,10.0,ENE,6.9,-,N/A,,Clear,70,2013-11-15 19:53:00
4:53 PM,82.9,75.9,79,29.92,10.0,NE,8.1,-,N/A,,Mostly Cloudy,50,2013-11-15 20:53:00
5:43 PM,82.4,73.4,74,29.93,10.0,ENE,10.4,-,N/A,,Mostly Cloudy,60,2013-11-15 21:43:00
5:50 PM,82.4,73.4,74,29.93,10.0,ENE,8.1,-,N/A,,Mostly Cloudy,60,2013-11-15 21:50:00
5:53 PM,82.0,73.9,76,29.93,10.0,ENE,9.2,-,N/A,,Mostly Cloudy,60,2013-11-15 21:53:00
6:53 PM,82.0,75.0,79,29.95,10.0,ENE,6.9,-,N/A,,Mostly Cloudy,60,2013-11-15 22:53:00
7:53 PM,82.0,75.0,79,29.96,10.0,East,5.8,-,N/A,,Partly Cloudy,80,2013-11-15 23:53:00
8:53 PM,82.0,75.0,79,29.96,10.0,East,5.8,-,N/A,,Mostly Cloudy,80,2013-11-16 00:53:00
9:53 PM,82.9,73.9,74,29.96,10.0,East,8.1,-,N/A,,Overcast,90,2013-11-16 01:53:00
10:53 PM,82.9,75.0,77,29.96,10.0,East,6.9,-,N/A,,Mostly Cloudy,80,2013-11-16 02:53:00
11:53 PM,82.0,75.0,79,29.96,10.0,ENE,5.8,-,N/A,,Partly Cloudy,60,2013-11-16 03:53:00